Time;durP1;ratioP1;P1;durP2;ratioP2;P2;SDS_P1;SDS_P2;PMS_P1;PMS_P2;Temp;Humidity;BMP_temperature;BMP_pressure;BME280_temperature;BME280_humidity;BME280_pressure;Samples;Min_cycle;Max_cycle;Signal;HPM_P1;HPM_P2
2021/12/16 00:07:06;;;;;;;12.43;10.77;;;2.20;91.40;;;;;;5037501;28;20082;-67
2021/12/16 00:31:22;;;;;;;12.48;10.75;;;2.20;90.60;;;;;;5037045;28;20418;-65
2021/12/16 00:34:03;;;;;;;11.70;10.10;;;2.30;90.40;;;;;;5036952;28;20415;-64
2021/12/16 00:36:33;;;;;;;11.77;9.93;;;2.20;90.40;;;;;;5036826;28;20033;-66
2021/12/16 00:39:00;;;;;;;11.93;10.30;;;2.20;90.50;;;;;;5036734;28;20139;-67
2021/12/16 00:41:26;;;;;;;10.80;9.55;;;2.10;90.50;;;;;;5036654;28;20059;-66
2021/12/16 00:44:23;;;;;;;11.85;9.93;;;2.10;90.30;;;;;;5036714;28;20022;-67
2021/12/16 00:49:35;;;;;;;11.73;10.48;;;2.00;90.30;;;;;;5036674;28;20041;-68
2021/12/16 00:54:56;;;;;;;12.43;10.07;;;1.90;90.40;;;;;;5036067;28;20040;-68
2021/12/16 00:57:21;;;;;;;13.90;10.65;;;1.90;90.60;;;;;;5037113;28;20044;-67
2021/12/16 00:59:49;;;;;;;12.55;11.00;;;2.00;90.60;;;;;;5036366;28;20026;-68
2021/12/16 01:02:44;;;;;;;12.77;11.32;;;1.90;90.60;;;;;;5036377;28;20083;-67
2021/12/16 01:08:16;;;;;;;13.55;11.45;;;2.00;91.00;;;;;;5036293;28;20029;-67
2021/12/16 01:52:01;;;;;;;9.27;7.95;;;1.90;92.10;;;;;;5035478;28;20079;-68
2021/12/16 01:57:08;;;;;;;9.48;7.57;;;1.90;92.10;;;;;;5035333;28;20029;-67
2021/12/16 01:59:36;;;;;;;10.15;8.73;;;1.90;92.00;;;;;;5034206;28;20029;-66
2021/12/16 02:02:28;;;;;;;8.75;7.85;;;1.80;92.10;;;;;;5035193;28;20041;-66
2021/12/16 02:10:30;;;;;;;9.98;8.65;;;1.80;92.80;;;;;;5035135;28;20176;-67
2021/12/16 02:32:01;;;;;;;10.73;9.00;;;1.80;92.70;;;;;;5034624;28;20029;-65
2021/12/16 02:37:17;;;;;;;10.55;8.75;;;1.80;92.80;;;;;;5034545;28;20091;-69
2021/12/16 02:39:44;;;;;;;10.32;8.35;;;1.70;92.90;;;;;;5034545;28;20033;-67
2021/12/16 02:42:17;;;;;;;10.00;8.63;;;1.70;93.30;;;;;;5034463;28;20030;-71
2021/12/16 02:50:14;;;;;;;12.45;10.65;;;1.70;93.70;;;;;;5034685;28;20494;-68
2021/12/16 02:52:40;;;;;;;10.57;8.45;;;1.70;94.10;;;;;;5034342;28;20083;-66
2021/12/16 02:55:09;;;;;;;11.52;9.13;;;1.70;94.20;;;;;;5034211;28;20033;-67
2021/12/16 02:57:43;;;;;;;10.77;8.65;;;1.70;94.50;;;;;;5034392;28;20021;-70
2021/12/16 03:00:14;;;;;;;12.52;9.48;;;1.80;94.60;;;;;;5034441;28;20379;-66
2021/12/16 03:02:42;;;;;;;9.80;8.00;;;1.70;94.50;;;;;;5034060;28;20360;-70
2021/12/16 03:05:09;;;;;;;10.25;8.30;;;1.80;94.80;;;;;;5034287;28;20037;-65
2021/12/16 03:07:35;;;;;;;11.45;9.13;;;1.80;94.70;;;;;;5034368;28;20375;-64
2021/12/16 03:16:05;;;;;;;9.13;7.63;;;1.80;95.20;;;;;;5033855;28;20120;-65
2021/12/16 03:18:26;;;;;;;10.02;8.02;;;1.80;95.10;;;;;;5039992;28;20095;-65
2021/12/16 03:20:56;;;;;;;11.38;8.65;;;1.80;95.10;;;;;;5033728;28;20112;-66
2021/12/16 03:23:37;;;;;;;11.02;8.43;;;1.80;95.20;;;;;;5032747;28;20029;-67
2021/12/16 03:36:47;;;;;;;8.80;6.60;;;1.90;95.80;;;;;;5032825;28;20036;-67
2021/12/16 03:39:12;;;;;;;9.18;7.15;;;2.00;95.60;;;;;;5033853;28;20040;-67
2021/12/16 03:41:38;;;;;;;9.30;6.13;;;1.90;95.30;;;;;;5033687;28;20104;-66
2021/12/16 03:44:10;;;;;;;5.57;4.88;;;1.90;94.90;;;;;;5033731;28;20079;-70
2021/12/16 03:46:39;;;;;;;5.72;4.65;;;2.00;94.60;;;;;;5033511;28;20026;-67
2021/12/16 03:49:17;;;;;;;7.90;6.00;;;2.00;94.30;;;;;;5033413;28;20021;-67
2021/12/16 03:51:46;;;;;;;8.13;6.47;;;1.90;94.10;;;;;;5033885;28;20108;-67
2021/12/16 03:54:23;;;;;;;7.35;5.70;;;1.80;94.10;;;;;;5033588;28;20037;-68
2021/12/16 03:56:49;;;;;;;10.25;5.85;;;1.80;94.30;;;;;;5033686;28;20033;-66
2021/12/16 03:59:20;;;;;;;7.22;5.50;;;1.80;94.50;;;;;;5033388;28;20026;-68
2021/12/16 04:01:46;;;;;;;7.60;6.07;;;1.80;94.80;;;;;;5032240;28;20030;-65
2021/12/16 04:04:12;;;;;;;7.05;5.72;;;1.90;94.90;;;;;;5033282;28;20034;-68
2021/12/16 04:06:38;;;;;;;9.90;6.45;;;1.90;94.70;;;;;;5033452;28;20042;-65
2021/12/16 04:09:07;;;;;;;14.02;8.55;;;1.90;94.60;;;;;;5033423;28;20051;-64
2021/12/16 04:11:39;;;;;;;12.45;7.53;;;2.00;94.50;;;;;;5033330;28;20060;-67
2021/12/16 04:14:11;;;;;;;8.63;5.47;;;2.00;94.50;;;;;;5033272;28;20423;-69
2021/12/16 04:16:46;;;;;;;10.05;5.85;;;2.10;94.20;;;;;;5033245;28;20033;-66
2021/12/16 04:19:16;;;;;;;18.08;9.35;;;2.10;94.10;;;;;;5033385;28;20072;-65
2021/12/16 04:21:51;;;;;;;10.57;7.22;;;2.10;94.10;;;;;;5033199;28;20022;-65
2021/12/16 04:24:17;;;;;;;8.25;4.90;;;2.10;94.10;;;;;;5033543;28;20037;-64
2021/12/16 04:26:44;;;;;;;6.03;4.30;;;2.10;94.20;;;;;;5033787;28;20095;-66
2021/12/16 04:29:10;;;;;;;5.90;4.40;;;2.00;94.20;;;;;;5037369;28;20040;-66
2021/12/16 04:31:37;;;;;;;8.30;5.32;;;2.00;94.70;;;;;;5036779;28;20034;-67
2021/12/16 04:34:04;;;;;;;10.63;7.22;;;2.10;94.60;;;;;;5036919;28;20037;-66
2021/12/16 04:36:30;;;;;;;21.85;14.05;;;2.10;94.70;;;;;;5036756;28;20415;-68
2021/12/16 04:38:56;;;;;;;18.88;12.68;;;2.10;94.90;;;;;;5036816;28;20040;-66
2021/12/16 04:41:22;;;;;;;16.15;10.35;;;2.10;95.10;;;;;;5036736;28;20421;-66
2021/12/16 04:43:51;;;;;;;17.65;11.88;;;2.10;95.20;;;;;;5036890;28;20379;-66
2021/12/16 04:46:27;;;;;;;11.88;8.63;;;2.10;95.50;;;;;;5036835;28;20488;-66
2021/12/16 04:48:59;;;;;;;11.90;9.05;;;2.20;95.60;;;;;;5036762;28;20521;-66
2021/12/16 04:51:27;;;;;;;12.05;9.23;;;2.10;95.50;;;;;;5035644;28;20105;-67
2021/12/16 04:53:53;;;;;;;9.88;6.35;;;2.20;95.50;;;;;;5036457;28;20045;-66
2021/12/16 04:56:19;;;;;;;7.72;5.50;;;2.20;95.20;;;;;;5036645;28;20038;-66
2021/12/16 04:58:48;;;;;;;8.60;6.43;;;2.20;95.10;;;;;;5036423;28;20030;-67
2021/12/16 05:01:15;;;;;;;9.95;7.75;;;2.10;95.10;;;;;;5036355;28;20410;-68
2021/12/16 05:03:41;;;;;;;10.13;7.95;;;2.20;95.30;;;;;;5036181;28;20064;-69
2021/12/16 05:06:07;;;;;;;10.27;7.95;;;2.20;95.40;;;;;;5036227;28;20022;-64
2021/12/16 05:08:33;;;;;;;10.82;7.68;;;2.20;95.30;;;;;;5036509;28;20029;-72
2021/12/16 05:11:02;;;;;;;10.75;8.30;;;2.20;95.30;;;;;;5034438;28;20337;-65
2021/12/16 05:13:29;;;;;;;10.55;7.80;;;2.20;95.20;;;;;;5035866;28;20037;-68
2021/12/16 05:16:00;;;;;;;8.48;6.32;;;2.20;95.10;;;;;;5036114;28;20467;-67
2021/12/16 05:18:31;;;;;;;7.55;6.03;;;2.20;95.00;;;;;;5036385;28;20489;-67
2021/12/16 05:20:58;;;;;;;9.25;6.40;;;2.20;94.80;;;;;;5034586;28;20033;-67
2021/12/16 05:28:40;;;;;;;7.28;6.13;;;2.30;94.50;;;;;;5035702;28;20037;-66
2021/12/16 05:31:07;;;;;;;7.00;5.22;;;2.30;94.30;;;;;;5035855;28;20048;-67
2021/12/16 05:33:32;;;;;;;7.68;5.88;;;2.30;94.40;;;;;;5035700;28;20043;-68
2021/12/16 05:35:58;;;;;;;8.02;6.32;;;2.30;94.30;;;;;;5035753;28;20034;-68
2021/12/16 05:38:26;;;;;;;7.68;6.00;;;2.30;94.30;;;;;;5034929;28;20038;-67
2021/12/16 05:40:52;;;;;;;10.45;6.90;;;2.30;94.10;;;;;;5035296;28;20029;-67
2021/12/16 05:43:22;;;;;;;8.82;7.13;;;2.30;94.10;;;;;;5035356;28;20057;-68
2021/12/16 05:45:48;;;;;;;8.23;6.30;;;2.40;94.00;;;;;;5035463;28;20083;-68
2021/12/16 05:48:17;;;;;;;8.73;6.47;;;2.40;94.00;;;;;;5035153;28;20029;-68
2021/12/16 05:50:47;;;;;;;8.85;6.80;;;2.40;93.70;;;;;;5035479;28;20040;-67
2021/12/16 05:53:13;;;;;;;9.05;6.80;;;2.40;93.50;;;;;;5035365;28;20104;-67
2021/12/16 05:55:39;;;;;;;8.00;6.40;;;2.40;93.30;;;;;;5035285;28;20080;-67
2021/12/16 05:58:07;;;;;;;10.93;7.28;;;2.40;93.30;;;;;;5035566;28;20025;-68
2021/12/16 06:00:39;;;;;;;10.57;7.97;;;2.40;93.20;;;;;;5035263;28;20378;-66
2021/12/16 06:03:06;;;;;;;11.63;8.30;;;2.40;93.20;;;;;;5035214;28;20026;-68
2021/12/16 06:05:31;;;;;;;13.68;10.32;;;2.50;93.30;;;;;;5035005;28;20034;-64
2021/12/16 06:08:00;;;;;;;13.85;9.18;;;2.50;93.30;;;;;;5035345;28;20085;-67
2021/12/16 06:13:11;;;;;;;16.30;11.48;;;2.50;92.70;;;;;;5035081;28;20096;-66
2021/12/16 06:22:18;;;;;;;15.68;10.98;;;2.50;92.90;;;;;;5034081;28;20049;-67
2021/12/16 06:27:28;;;;;;;18.15;12.20;;;2.60;93.00;;;;;;5034846;28;20092;-67
2021/12/16 06:29:37;;;;;;;19.52;14.30;;;2.70;92.90;;;;;;5031343;28;20078;-65
2021/12/16 06:32:04;;;;;;;20.05;14.82;;;2.80;92.80;;;;;;5034979;28;20033;-66
2021/12/16 06:34:30;;;;;;;22.27;15.38;;;2.80;92.40;;;;;;5034465;28;20463;-67
2021/12/16 06:36:56;;;;;;;19.52;13.27;;;2.80;92.30;;;;;;5034621;28;20034;-68
2021/12/16 06:39:22;;;;;;;19.73;12.85;;;2.80;92.20;;;;;;5034516;28;20029;-68
2021/12/16 06:41:48;;;;;;;16.63;9.65;;;2.70;92.00;;;;;;5034465;28;20028;-65
2021/12/16 06:44:20;;;;;;;14.82;10.90;;;2.70;92.10;;;;;;5034399;28;20482;-65
2021/12/16 06:46:47;;;;;;;18.00;12.48;;;2.80;91.90;;;;;;5034664;28;20517;-67
2021/12/16 06:49:16;;;;;;;20.75;13.45;;;2.80;91.30;;;;;;5034229;28;20025;-67
2021/12/16 06:54:18;;;;;;;19.85;13.23;;;2.60;91.80;;;;;;5034116;28;20083;-67
2021/12/16 06:59:26;;;;;;;25.15;18.00;;;2.60;92.40;;;;;;5034412;28;20021;-67
2021/12/16 07:04:37;;;;;;;29.48;19.55;;;2.70;92.50;;;;;;5033992;28;20088;-67
2021/12/16 07:07:07;;;;;;;27.45;19.15;;;2.70;92.20;;;;;;5033720;28;20456;-68
2021/12/16 07:09:33;;;;;;;28.60;17.50;;;2.70;92.80;;;;;;5033872;28;20026;-67
2021/12/16 07:12:00;;;;;;;24.83;18.30;;;2.70;93.00;;;;;;5034203;28;20467;-67
2021/12/16 07:14:36;;;;;;;28.23;20.42;;;2.80;93.00;;;;;;5033851;28;20088;-67
2021/12/16 07:17:10;;;;;;;32.58;21.35;;;2.80;93.10;;;;;;5032305;28;20033;-67
2021/12/16 07:19:36;;;;;;;31.75;22.13;;;2.90;93.00;;;;;;5033956;28;20056;-66
2021/12/16 07:22:04;;;;;;;33.58;23.58;;;2.90;92.90;;;;;;5033876;28;20026;-66
2021/12/16 07:24:29;;;;;;;32.17;23.23;;;2.90;92.80;;;;;;5033751;28;20083;-66
2021/12/16 07:26:55;;;;;;;36.28;22.95;;;2.90;92.90;;;;;;5033552;28;20108;-69
2021/12/16 07:29:21;;;;;;;33.42;24.73;;;2.90;93.00;;;;;;5033587;28;20103;-64
2021/12/16 07:31:46;;;;;;;35.47;25.40;;;3.00;93.10;;;;;;5032538;28;20040;-66
2021/12/16 07:34:13;;;;;;;33.15;24.75;;;3.00;92.80;;;;;;5033668;28;20037;-64
2021/12/16 07:36:41;;;;;;;31.92;24.95;;;3.00;92.90;;;;;;5033845;28;20468;-66
2021/12/16 07:39:10;;;;;;;35.30;25.30;;;3.10;92.40;;;;;;5033640;28;20048;-68
2021/12/16 07:41:38;;;;;;;37.88;29.02;;;3.10;92.30;;;;;;5033720;28;20108;-67
2021/12/16 07:44:12;;;;;;;38.70;28.77;;;3.00;92.00;;;;;;5033181;28;20033;-67
2021/12/16 07:46:48;;;;;;;33.15;26.58;;;2.90;92.10;;;;;;5033623;28;20109;-67
2021/12/16 07:49:22;;;;;;;33.88;25.50;;;2.90;92.80;;;;;;5033583;28;20061;-67
2021/12/16 07:51:48;;;;;;;32.70;25.23;;;3.00;93.30;;;;;;5033572;28;20033;-67
2021/12/16 07:54:15;;;;;;;36.47;26.25;;;3.00;93.40;;;;;;5033474;28;20060;-68
2021/12/16 07:56:41;;;;;;;44.83;30.30;;;3.10;93.40;;;;;;5033516;28;20033;-67
2021/12/16 07:59:08;;;;;;;39.67;30.90;;;3.20;93.20;;;;;;5033459;28;20029;-68
2021/12/16 08:01:36;;;;;;;36.88;26.55;;;3.30;92.70;;;;;;5033798;28;20383;-72
2021/12/16 08:04:02;;;;;;;35.03;25.63;;;3.20;92.70;;;;;;5037784;28;20384;-64
2021/12/16 08:06:29;;;;;;;35.92;25.85;;;3.30;92.50;;;;;;5037506;28;20072;-66
2021/12/16 08:09:02;;;;;;;34.85;24.98;;;3.20;92.50;;;;;;5037325;28;20112;-69
2021/12/16 08:11:31;;;;;;;37.25;24.42;;;3.30;92.60;;;;;;5037155;28;20475;-73
2021/12/16 08:13:57;;;;;;;36.88;24.95;;;3.30;92.50;;;;;;5036926;28;20080;-66
2021/12/16 08:16:23;;;;;;;32.10;22.40;;;3.30;92.40;;;;;;5037248;28;20057;-69
2021/12/16 08:18:52;;;;;;;28.27;19.25;;;3.30;92.40;;;;;;5037160;28;20357;-67
2021/12/16 08:21:20;;;;;;;19.80;13.63;;;3.30;92.40;;;;;;5036925;28;20033;-67
2021/12/16 08:23:46;;;;;;;20.45;13.68;;;3.30;92.50;;;;;;5036943;28;20068;-67
2021/12/16 08:26:15;;;;;;;21.08;14.75;;;3.40;92.60;;;;;;5037118;28;20367;-67
2021/12/16 08:28:42;;;;;;;19.20;14.50;;;3.50;92.30;;;;;;5036937;28;20034;-64
2021/12/16 08:31:08;;;;;;;19.27;13.63;;;3.50;91.90;;;;;;5037003;28;20037;-66
2021/12/16 08:33:34;;;;;;;21.73;15.07;;;3.50;91.30;;;;;;5036808;28;20025;-65
2021/12/16 08:36:00;;;;;;;24.65;17.65;;;3.50;91.30;;;;;;5036825;28;20078;-66
2021/12/16 08:38:27;;;;;;;29.95;19.55;;;3.40;91.80;;;;;;5036641;28;20033;-66
2021/12/16 08:40:57;;;;;;;26.40;20.02;;;3.40;92.20;;;;;;5037045;28;20112;-66
2021/12/16 08:43:25;;;;;;;28.00;21.75;;;3.40;92.40;;;;;;5035572;28;20043;-70
2021/12/16 08:45:51;;;;;;;31.40;24.15;;;3.50;92.20;;;;;;5036706;28;20025;-66
2021/12/16 08:48:16;;;;;;;28.40;24.02;;;3.50;92.10;;;;;;5036552;28;20029;-68
2021/12/16 08:50:48;;;;;;;33.40;26.90;;;3.50;91.60;;;;;;5036817;28;20360;-68
2021/12/16 08:53:15;;;;;;;39.63;30.40;;;3.50;91.90;;;;;;5036468;28;20367;-66
2021/12/16 08:55:42;;;;;;;34.78;28.17;;;3.50;92.00;;;;;;5036335;28;20025;-68
2021/12/16 08:58:08;;;;;;;35.50;28.45;;;3.40;91.90;;;;;;5036302;28;20025;-66
2021/12/16 09:00:39;;;;;;;30.98;25.90;;;3.40;92.00;;;;;;5036366;28;20025;-68
2021/12/16 09:03:05;;;;;;;38.45;30.45;;;3.50;92.10;;;;;;5036129;28;20072;-68
2021/12/16 09:05:32;;;;;;;41.05;34.50;;;3.50;92.00;;;;;;5036590;28;20061;-67
2021/12/16 09:07:58;;;;;;;36.85;29.38;;;3.50;91.90;;;;;;5036432;28;20075;-67
2021/12/16 09:10:28;;;;;;;34.40;27.27;;;3.50;92.00;;;;;;5036027;28;20353;-66
2021/12/16 09:13:03;;;;;;;36.92;27.02;;;3.60;91.90;;;;;;5035917;28;20053;-68
2021/12/16 09:15:39;;;;;;;35.22;28.48;;;3.70;91.50;;;;;;5035368;28;20038;-66
2021/12/16 09:18:07;;;;;;;42.47;35.70;;;3.80;91.30;;;;;;5036067;28;20064;-66
2021/12/16 09:20:33;;;;;;;41.17;33.95;;;3.80;90.80;;;;;;5036115;28;20364;-68
2021/12/16 09:22:59;;;;;;;40.80;34.55;;;3.70;90.90;;;;;;5036434;28;20040;-65
2021/12/16 09:25:25;;;;;;;42.08;35.25;;;3.70;91.20;;;;;;5036043;28;20025;-66
2021/12/16 09:27:52;;;;;;;43.38;36.80;;;3.70;91.40;;;;;;5035892;28;20052;-64
2021/12/16 09:30:21;;;;;;;43.92;39.13;;;3.70;91.50;;;;;;5035802;28;20037;-67
2021/12/16 09:32:50;;;;;;;46.85;39.72;;;3.70;91.50;;;;;;5035839;28;20036;-67
2021/12/16 09:35:17;;;;;;;36.78;32.15;;;3.70;91.60;;;;;;5034396;28;20025;-68
2021/12/16 09:37:43;;;;;;;36.42;30.25;;;3.70;91.50;;;;;;5035702;28;20507;-68
2021/12/16 09:40:19;;;;;;;35.20;28.17;;;3.80;91.50;;;;;;5035627;28;20033;-68
2021/12/16 09:42:44;;;;;;;35.25;28.40;;;3.80;91.40;;;;;;5034423;28;20111;-69
2021/12/16 09:45:12;;;;;;;34.42;28.50;;;3.90;91.40;;;;;;5035628;28;20030;-66
2021/12/16 09:47:40;;;;;;;47.58;27.90;;;4.00;91.30;;;;;;5035635;28;20030;-71
2021/12/16 09:50:09;;;;;;;31.83;25.23;;;4.00;91.10;;;;;;5035483;28;20036;-66
2021/12/16 09:52:34;;;;;;;25.02;18.60;;;4.10;90.90;;;;;;5035285;28;20037;-65
2021/12/16 09:55:01;;;;;;;24.48;18.52;;;4.10;90.80;;;;;;5035654;28;20048;-67
2021/12/16 09:57:28;;;;;;;23.48;15.95;;;4.10;90.70;;;;;;5034191;28;20382;-68
2021/12/16 09:59:55;;;;;;;25.20;17.10;;;4.10;90.50;;;;;;5035427;28;20112;-68
2021/12/16 10:02:21;;;;;;;25.27;17.60;;;4.10;90.60;;;;;;5035164;28;20060;-66
2021/12/16 10:04:48;;;;;;;23.38;16.15;;;4.10;90.50;;;;;;5035396;28;20033;-68
2021/12/16 10:07:17;;;;;;;22.33;15.10;;;4.00;90.60;;;;;;5035027;28;20037;-68
2021/12/16 10:09:45;;;;;;;19.70;12.68;;;4.00;90.50;;;;;;5033966;28;20079;-65
2021/12/16 10:12:15;;;;;;;23.60;14.73;;;3.90;90.60;;;;;;5035246;28;20092;-67
2021/12/16 10:15:03;;;;;;;21.20;14.43;;;3.80;90.90;;;;;;5034761;28;20072;-68
2021/12/16 10:17:40;;;;;;;24.20;15.07;;;3.70;91.20;;;;;;5034934;28;20383;-67
2021/12/16 10:20:20;;;;;;;23.42;15.25;;;3.80;91.70;;;;;;5035052;28;20466;-67
2021/12/16 10:22:47;;;;;;;19.30;13.30;;;3.90;91.60;;;;;;5034669;28;20025;-68
2021/12/16 10:25:30;;;;;;;23.00;14.45;;;4.00;91.40;;;;;;5034850;28;20162;-68
2021/12/16 10:27:59;;;;;;;20.23;14.07;;;4.00;91.10;;;;;;5034779;28;20033;-66
2021/12/16 10:30:34;;;;;;;20.63;14.18;;;3.90;90.80;;;;;;5034714;28;20055;-70
2021/12/16 10:33:10;;;;;;;22.00;14.57;;;4.00;90.90;;;;;;5034690;28;20018;-66
2021/12/16 10:35:36;;;;;;;25.27;16.30;;;4.00;91.00;;;;;;5034723;28;20033;-68
2021/12/16 10:38:05;;;;;;;19.40;13.50;;;4.00;91.00;;;;;;5034855;28;20092;-70
2021/12/16 10:40:47;;;;;;;19.38;13.65;;;4.10;90.90;;;;;;5034436;28;20060;-67
2021/12/16 10:43:54;;;;;;;20.38;14.32;;;4.10;90.80;;;;;;5034378;28;20036;-66
2021/12/16 10:46:27;;;;;;;20.10;13.77;;;4.00;90.60;;;;;;5040817;28;20472;-70
2021/12/16 10:49:06;;;;;;;19.52;13.88;;;4.00;90.60;;;;;;5034476;28;20108;-67
2021/12/16 10:51:35;;;;;;;17.73;11.85;;;4.00;90.80;;;;;;5034216;28;20029;-68
2021/12/16 10:54:29;;;;;;;17.23;12.02;;;4.00;90.80;;;;;;5034170;28;20038;-69
2021/12/16 10:57:00;;;;;;;18.42;12.15;;;4.00;90.70;;;;;;5033569;28;20052;-67
2021/12/16 10:59:46;;;;;;;20.08;14.18;;;4.00;90.70;;;;;;5032856;28;20478;-68
2021/12/16 11:02:21;;;;;;;20.52;14.70;;;4.00;90.70;;;;;;5034556;28;20044;-66
2021/12/16 11:04:51;;;;;;;17.85;12.80;;;4.00;90.60;;;;;;5034123;28;20033;-68
2021/12/16 11:07:24;;;;;;;21.73;15.40;;;3.90;90.70;;;;;;5034052;28;20032;-67
2021/12/16 11:09:50;;;;;;;20.65;15.80;;;3.90;91.00;;;;;;5034078;28;20036;-73
2021/12/16 11:12:21;;;;;;;21.88;15.38;;;3.90;90.90;;;;;;5034167;28;20049;-72
2021/12/16 11:15:03;;;;;;;19.25;15.48;;;3.80;91.00;;;;;;5033900;28;20163;-68
2021/12/16 11:17:39;;;;;;;21.13;15.45;;;3.80;91.30;;;;;;5033794;28;20057;-68
2021/12/16 11:20:16;;;;;;;20.60;15.32;;;3.80;91.30;;;;;;5033934;28;20102;-68
2021/12/16 11:22:43;;;;;;;19.85;13.48;;;3.80;91.60;;;;;;5032557;28;20029;-69
2021/12/16 11:25:17;;;;;;;21.08;14.77;;;3.80;91.70;;;;;;5034292;28;20025;-68
2021/12/16 11:27:46;;;;;;;21.92;14.65;;;3.90;91.70;;;;;;5034205;28;20075;-67
2021/12/16 11:30:44;;;;;;;20.73;14.30;;;4.00;91.90;;;;;;5034362;28;20029;-68
2021/12/16 11:33:18;;;;;;;19.98;14.43;;;4.10;91.80;;;;;;5035456;28;20144;-67
2021/12/16 11:35:46;;;;;;;19.60;13.68;;;4.10;91.10;;;;;;5034200;28;20033;-66
2021/12/16 11:38:24;;;;;;;23.38;17.00;;;4.10;90.90;;;;;;5033171;28;20028;-66
2021/12/16 11:41:15;;;;;;;19.02;14.15;;;4.10;90.80;;;;;;5033834;28;20025;-66
2021/12/16 11:44:10;;;;;;;22.90;15.70;;;4.20;90.40;;;;;;5035372;28;20050;-67
2021/12/16 11:46:45;;;;;;;20.65;16.20;;;4.10;90.20;;;;;;5034404;28;20087;-66
2021/12/16 11:49:22;;;;;;;21.55;15.18;;;4.10;90.20;;;;;;5033914;28;20551;-67
2021/12/16 11:52:08;;;;;;;22.83;16.65;;;4.10;90.50;;;;;;5033704;28;20029;-67
2021/12/16 11:54:39;;;;;;;24.52;18.15;;;4.10;90.60;;;;;;5033739;28;20037;-70
2021/12/16 11:57:08;;;;;;;24.02;16.95;;;4.10;90.70;;;;;;5032268;28;20029;-68
2021/12/16 11:59:41;;;;;;;21.27;15.63;;;4.10;90.40;;;;;;5033085;28;20064;-71
2021/12/16 12:02:24;;;;;;;23.65;15.40;;;4.00;90.50;;;;;;5033303;28;20036;-67
2021/12/16 12:04:51;;;;;;;22.88;15.63;;;4.10;90.60;;;;;;5033506;28;20379;-66
2021/12/16 12:07:17;;;;;;;22.15;15.30;;;4.10;90.70;;;;;;5033455;28;20183;-66
2021/12/16 12:09:50;;;;;;;24.02;16.08;;;4.10;90.60;;;;;;5033739;28;20100;-66
2021/12/16 12:12:16;;;;;;;26.20;17.17;;;4.20;90.70;;;;;;5033469;28;20046;-67
2021/12/16 12:14:44;;;;;;;23.85;17.23;;;4.20;90.60;;;;;;5033347;28;20034;-67
2021/12/16 12:17:16;;;;;;;22.15;16.23;;;4.30;90.50;;;;;;5033522;28;20033;-65
2021/12/16 12:19:48;;;;;;;22.08;16.73;;;4.50;90.30;;;;;;5033709;28;20470;-67
2021/12/16 12:22:14;;;;;;;22.67;16.95;;;4.50;88.80;;;;;;5033223;28;20104;-66
2021/12/16 12:24:46;;;;;;;21.40;17.02;;;4.60;88.10;;;;;;5033239;28;20029;-67
2021/12/16 12:27:23;;;;;;;22.15;16.02;;;4.50;87.50;;;;;;5033456;28;20113;-68
2021/12/16 12:29:58;;;;;;;25.38;15.50;;;4.40;87.70;;;;;;5032000;28;20095;-67
2021/12/16 12:32:29;;;;;;;22.33;15.45;;;4.30;87.80;;;;;;5032265;28;20021;-68
2021/12/16 12:34:58;;;;;;;20.15;15.15;;;4.20;88.20;;;;;;5032944;28;20033;-69
2021/12/16 12:37:26;;;;;;;24.40;16.92;;;4.20;89.10;;;;;;5033096;28;20033;-65
2021/12/16 12:39:57;;;;;;;26.98;18.83;;;4.20;89.10;;;;;;5033099;28;20040;-66
2021/12/16 12:42:23;;;;;;;25.77;17.75;;;4.20;89.30;;;;;;5033159;28;20025;-67
2021/12/16 12:44:49;;;;;;;24.92;18.83;;;4.20;90.10;;;;;;5032578;28;20041;-67
2021/12/16 12:47:27;;;;;;;25.98;18.15;;;4.20;89.40;;;;;;5033026;28;20399;-68
2021/12/16 12:50:06;;;;;;;29.48;20.55;;;4.20;89.40;;;;;;5035081;28;20502;-69
2021/12/16 12:52:32;;;;;;;29.17;20.08;;;4.30;89.80;;;;;;5036561;28;20097;-71
2021/12/16 12:55:10;;;;;;;26.05;17.63;;;4.30;89.50;;;;;;5035001;28;20037;-70
2021/12/16 12:57:39;;;;;;;26.23;17.75;;;4.30;88.60;;;;;;5036445;28;20467;-67
2021/12/16 13:00:28;;;;;;;28.63;17.30;;;4.20;88.80;;;;;;5036593;28;20021;-67
2021/12/16 13:03:11;;;;;;;25.15;18.17;;;4.20;88.80;;;;;;5036488;28;20029;-68
2021/12/16 13:05:37;;;;;;;22.95;16.73;;;4.10;89.00;;;;;;5035687;28;20029;-69
2021/12/16 13:08:06;;;;;;;22.65;16.17;;;4.00;89.60;;;;;;5035022;28;20030;-70
2021/12/16 13:10:46;;;;;;;23.75;16.17;;;4.00;89.60;;;;;;5036370;28;20030;-70
2021/12/16 13:13:29;;;;;;;23.23;16.05;;;4.00;90.10;;;;;;5036190;28;20073;-67
2021/12/16 13:30:07;;;;;;;24.00;16.55;;;4.00;90.90;;;;;;5035645;28;20537;-70
2021/12/16 13:32:48;;;;;;;23.83;16.77;;;4.00;90.90;;;;;;5036440;28;20100;-69
2021/12/16 13:35:33;;;;;;;26.52;17.05;;;4.00;91.00;;;;;;5035646;28;20120;-67
2021/12/16 13:38:05;;;;;;;22.17;15.07;;;4.00;91.10;;;;;;5034784;28;20040;-68
2021/12/16 13:40:35;;;;;;;22.90;15.57;;;4.00;91.00;;;;;;5034405;28;20533;-68
2021/12/16 13:43:12;;;;;;;24.73;15.85;;;4.00;91.00;;;;;;5035501;28;20022;-68
2021/12/16 13:45:51;;;;;;;23.10;16.48;;;3.90;91.00;;;;;;5034550;28;20034;-68
2021/12/16 14:05:17;;;;;;;32.78;21.77;;;3.70;92.00;;;;;;5035544;28;20036;-68
2021/12/16 14:08:05;;;;;;;29.23;21.35;;;3.60;92.10;;;;;;5035249;28;20025;-68
2021/12/16 14:10:52;;;;;;;30.33;24.20;;;3.60;92.40;;;;;;5035403;28;20083;-71
2021/12/16 14:31:06;;;;;;;45.78;34.78;;;3.40;92.80;;;;;;5034968;28;20025;-67
2021/12/16 14:38:10;;;;;;;54.28;34.53;;;3.40;94.50;;;;;;5034730;28;20124;-68
2021/12/16 14:40:51;;;;;;;47.63;32.78;;;3.40;94.50;;;;;;5034595;28;20033;-70
2021/12/16 14:43:35;;;;;;;57.78;36.20;;;3.40;94.60;;;;;;5035162;28;20163;-67
2021/12/16 14:46:04;;;;;;;53.00;34.63;;;3.40;94.50;;;;;;5034743;28;20483;-66
2021/12/16 14:48:35;;;;;;;46.28;32.05;;;3.40;94.70;;;;;;5034491;28;20114;-67
2021/12/16 14:51:12;;;;;;;46.70;31.20;;;3.40;94.80;;;;;;5034464;28;20018;-68
2021/12/16 14:53:42;;;;;;;45.35;30.45;;;3.40;94.90;;;;;;5034157;28;20033;-67
2021/12/16 14:56:12;;;;;;;47.40;31.98;;;3.30;95.00;;;;;;5034202;28;20064;-66
2021/12/16 14:58:39;;;;;;;49.65;31.15;;;3.30;95.20;;;;;;5034099;28;20079;-70
2021/12/16 15:01:18;;;;;;;46.45;30.38;;;3.30;95.30;;;;;;5033142;28;20029;-67
2021/12/16 15:03:45;;;;;;;43.05;28.77;;;3.30;95.40;;;;;;5034063;28;20497;-68
2021/12/16 15:06:16;;;;;;;42.47;29.35;;;3.30;95.80;;;;;;5034073;28;20029;-68
2021/12/16 15:11:38;;;;;;;40.83;28.42;;;3.30;96.50;;;;;;5033631;28;20156;-65
2021/12/16 15:14:17;;;;;;;34.15;22.65;;;3.40;96.70;;;;;;5033540;28;20392;-68
2021/12/16 15:44:15;;;;;;;35.38;23.05;;;3.60;97.60;;;;;;5033747;28;20090;-67
2021/12/16 15:46:41;;;;;;;33.38;23.02;;;3.60;97.30;;;;;;5033476;28;20104;-71
2021/12/16 15:49:08;;;;;;;33.42;23.52;;;3.60;97.20;;;;;;5033293;28;20030;-67
2021/12/16 15:51:34;;;;;;;35.92;22.67;;;3.60;97.20;;;;;;5033457;28;20375;-67
2021/12/16 15:54:01;;;;;;;35.17;23.23;;;3.60;97.30;;;;;;5031932;28;20033;-67
2021/12/16 15:56:32;;;;;;;34.78;22.30;;;3.60;97.30;;;;;;5033358;28;20026;-66
2021/12/16 15:59:03;;;;;;;35.60;22.83;;;3.60;97.40;;;;;;5032312;28;20566;-66
2021/12/16 16:01:40;;;;;;;33.75;23.88;;;3.60;97.40;;;;;;5033462;28;20022;-68
2021/12/16 16:04:12;;;;;;;32.47;23.08;;;3.60;97.70;;;;;;5033399;28;20033;-66
2021/12/16 16:06:43;;;;;;;33.90;23.40;;;3.60;97.70;;;;;;5033207;28;20487;-68
2021/12/16 16:09:11;;;;;;;34.05;23.60;;;3.60;97.90;;;;;;5032357;28;20414;-68
2021/12/16 16:11:39;;;;;;;39.05;25.33;;;3.60;98.10;;;;;;5033061;28;20056;-68
2021/12/16 16:14:06;;;;;;;37.90;25.75;;;3.60;98.20;;;;;;5031912;28;20033;-68
2021/12/16 16:16:40;;;;;;;39.30;27.08;;;3.60;98.10;;;;;;5033209;28;20415;-71
2021/12/16 16:19:09;;;;;;;36.53;26.90;;;3.70;98.20;;;;;;5033491;28;20029;-74
2021/12/16 16:21:42;;;;;;;39.38;25.50;;;3.70;98.20;;;;;;5033522;28;20118;-74
2021/12/16 16:24:16;;;;;;;37.40;25.08;;;3.70;98.10;;;;;;5035784;28;20459;-73
2021/12/16 16:26:43;;;;;;;37.63;26.30;;;3.70;98.10;;;;;;5037222;28;20021;-73
2021/12/16 16:29:15;;;;;;;37.30;25.38;;;3.70;98.10;;;;;;5036854;28;20017;-71
2021/12/16 16:31:42;;;;;;;43.17;28.25;;;3.70;98.10;;;;;;5037020;28;20033;-71
2021/12/16 16:34:13;;;;;;;37.80;26.55;;;3.70;98.30;;;;;;5036848;28;20148;-73
2021/12/16 16:36:45;;;;;;;39.28;26.52;;;3.70;98.70;;;;;;5037037;28;20036;-71
2021/12/16 16:39:14;;;;;;;41.40;27.70;;;3.80;98.60;;;;;;5035674;28;20025;-71
2021/12/16 16:41:47;;;;;;;40.88;27.70;;;3.80;98.60;;;;;;5036805;28;20028;-70
2021/12/16 16:44:15;;;;;;;41.97;27.25;;;3.70;98.60;;;;;;5037025;28;20079;-75
2021/12/16 16:46:51;;;;;;;42.47;28.38;;;3.80;98.90;;;;;;5035699;28;20025;-72
2021/12/16 16:49:28;;;;;;;;;;;3.80;98.90;;;;;;5037272;28;20529;-73
2021/12/16 16:51:56;;;;;;;42.47;29.33;;;3.80;98.20;;;;;;5036765;28;20000;-73
2021/12/16 16:54:28;;;;;;;41.97;30.85;;;3.80;99.10;;;;;;5036331;28;20543;-71
2021/12/16 16:57:02;;;;;;;43.20;30.80;;;3.80;99.50;;;;;;5037028;28;20371;-71